createdAt,value
2022-08-16T03:57:19.991Z,99655.12
2022-08-16T04:00:36.234Z,99655.12
2022-08-16T04:03:45.277Z,99673.63
2022-08-16T04:06:48.721Z,99670.53
2022-08-16T04:09:54.021Z,99679.97
2022-08-16T04:13:04.171Z,99671.38
2022-08-16T04:16:08.629Z,99674.94
2022-08-16T04:19:12.037Z,99676.19
2022-08-16T04:22:17.403Z,99668.72
2022-08-16T04:25:22.712Z,99675.31
2022-08-16T04:28:29.167Z,99666.34
2022-08-16T04:31:56.385Z,99671.38
2022-08-16T04:35:09.283Z,99666.28
2022-08-16T04:38:20.781Z,99662.88
2022-08-16T04:41:32.382Z,99669.97
2022-08-16T04:44:53.838Z,99666.06
2022-08-16T04:48:00.099Z,99663.00
2022-08-16T04:51:11.588Z,99667.28
2022-08-16T04:54:15.690Z,99674.31
2022-08-16T04:57:22.567Z,99674.00
2022-08-16T05:00:33.721Z,99673.28
2022-08-16T05:03:41.790Z,99666.28
2022-08-16T05:06:46.139Z,99667.47
2022-08-16T05:09:49.436Z,99674.50
2022-08-16T05:12:52.393Z,99678.50
2022-08-16T05:15:54.570Z,99686.31
2022-08-16T05:19:02.096Z,99687.47
2022-08-16T05:22:05.991Z,99684.34
2022-08-16T05:25:12.503Z,99687.50
2022-08-16T05:28:18.622Z,99696.47
2022-08-16T05:31:21.683Z,99690.63
2022-08-16T05:34:25.508Z,99702.75
2022-08-16T05:37:28.823Z,99697.66
2022-08-16T05:40:42.770Z,99700.00
2022-08-16T05:44:05.531Z,99693.75
2022-08-16T05:47:24.599Z,99697.25
2022-08-16T05:50:33.876Z,99692.97
2022-08-16T05:53:36.518Z,99694.53
2022-08-16T05:56:43.026Z,99687.50
2022-08-16T05:59:50.404Z,99681.66
2022-08-16T06:03:01.966Z,99682.84
2022-08-16T06:06:08.558Z,99694.56
2022-08-16T06:09:15.625Z,99690.66
2022-08-16T06:12:27.148Z,99700.06
2022-08-16T06:15:31.220Z,99694.97
2022-08-16T06:18:33.902Z,99707.09
2022-08-16T06:21:36.783Z,99704.75
2022-08-16T06:24:53.492Z,99696.94
2022-08-16T06:27:58.292Z,99699.28
2022-08-16T06:31:02.410Z,99689.84
2022-08-16T06:34:40.781Z,99692.97
2022-08-16T06:37:37.456Z,99695.31
2022-08-16T06:40:41.122Z,99694.53
2022-08-16T06:43:51.817Z,99690.97
2022-08-16T06:46:57.486Z,99692.12
2022-08-16T06:50:05.898Z,99691.34
2022-08-16T06:53:09.669Z,99700.31
2022-08-16T06:56:14.176Z,99685.75
2022-08-16T06:59:26.146Z,99693.47
2022-08-16T07:02:33.303Z,99686.38
2022-08-16T07:05:41.275Z,99693.03
2022-08-16T07:08:46.371Z,99698.16
2022-08-16T07:11:51.761Z,99702.09
2022-08-16T07:14:59.898Z,99710.31
2022-08-16T07:18:03.522Z,99702.44
2022-08-16T07:21:08.546Z,99702.41
2022-08-16T07:24:11.182Z,99703.19
2022-08-16T07:27:37.222Z,99704.37
2022-08-16T07:30:46.305Z,99700.06
2022-08-16T07:33:53.138Z,99692.56
2022-08-16T07:37:03.953Z,99700.38
2022-08-16T07:40:13.391Z,99711.75
2022-08-16T07:43:16.259Z,99723.91
2022-08-16T07:46:37.668Z,99729.38
2022-08-16T07:49:53.232Z,99721.50
2022-08-16T07:53:02.059Z,99725.84
2022-08-16T07:56:06.254Z,99726.97
2022-08-16T07:59:10.020Z,99717.53
2022-08-16T08:02:13.413Z,99713.56
2022-08-16T08:05:25.609Z,99722.19
2022-08-16T08:08:51.328Z,99725.31
2022-08-16T08:11:59.827Z,99723.38
2022-08-16T08:15:09.851Z,99726.91
2022-08-16T08:18:30.619Z,99731.63
2022-08-16T08:22:00.957Z,99737.16
2022-08-16T08:24:59.065Z,99733.19
2022-08-16T08:28:06.509Z,99734.37
2022-08-16T08:31:17.150Z,99725.69
2022-08-16T08:34:22.124Z,99731.94
2022-08-16T08:37:25.478Z,99736.56
2022-08-16T08:40:30.012Z,99728.97
2022-08-16T08:43:41.300Z,99732.88
2022-08-16T08:46:44.589Z,99731.63
2022-08-16T08:50:07.443Z,99738.53
2022-08-16T08:53:12.967Z,99738.84
2022-08-16T08:56:23.689Z,99741.94
2022-08-16T08:59:28.911Z,99732.78
2022-08-16T09:02:34.882Z,99725.53
2022-08-16T09:05:38.017Z,99723.09
2022-08-16T09:08:47.526Z,99721.78
2022-08-16T09:12:00.231Z,99726.47
2022-08-16T09:15:13.827Z,99732.97
2022-08-16T09:18:25.322Z,99725.88
2022-08-16T09:21:31.371Z,99725.75
2022-08-16T09:24:52.526Z,99712.72
2022-08-16T09:27:56.799Z,99713.34
2022-08-16T09:31:01.049Z,99708.56
2022-08-16T09:34:03.949Z,99703.37
2022-08-16T09:37:17.882Z,99703.63
2022-08-16T09:40:32.222Z,99692.94
2022-08-16T09:43:59.283Z,99693.16
2022-08-16T09:46:58.335Z,99691.13
2022-08-16T09:50:01.810Z,99696.13
2022-08-16T09:53:06.865Z,99691.25
2022-08-16T09:56:22.634Z,99690.78
2022-08-16T09:59:30.596Z,99688.81
2022-08-16T10:02:33.247Z,99686.69
2022-08-16T10:05:37.761Z,99673.19
2022-08-16T10:08:55.391Z,99676.66
2022-08-16T10:12:20.549Z,99680.37
2022-08-16T10:15:22.623Z,99676.66
2022-08-16T10:18:56.572Z,99669.88
2022-08-16T10:21:56.184Z,99674.19
2022-08-16T10:25:00.140Z,99665.53
2022-08-16T10:28:27.610Z,99665.87
2022-08-16T10:31:43.539Z,99676.66
2022-08-16T10:34:46.764Z,99665.37
2022-08-16T10:37:53.836Z,99664.34
2022-08-16T10:40:56.001Z,99669.72
2022-08-16T10:43:59.164Z,99676.62
2022-08-16T10:47:02.338Z,99668.78
2022-08-16T10:50:07.021Z,99659.84
2022-08-16T10:53:21.839Z,99660.72
2022-08-16T10:56:44.294Z,99658.47
2022-08-16T10:59:56.150Z,99658.03
2022-08-16T11:03:05.113Z,99654.62
2022-08-16T11:06:12.028Z,99648.53
2022-08-16T11:09:25.228Z,99642.50
2022-08-16T11:12:28.521Z,99646.97
2022-08-16T11:15:31.706Z,99644.09
2022-08-16T11:18:54.921Z,99647.22
2022-08-16T11:22:38.862Z,99648.53
2022-08-16T11:32:11.130Z,99669.19
2022-08-16T11:35:18.697Z,99684.22
2022-08-16T11:38:55.441Z,99680.13
2022-08-16T11:42:00.682Z,99723.56
2022-08-16T11:45:04.788Z,99735.47
2022-08-16T11:48:09.206Z,99738.41
2022-08-16T11:51:12.375Z,99748.63
2022-08-16T11:54:21.547Z,99746.88
2022-08-16T11:57:24.461Z,99739.06
2022-08-16T12:00:33.842Z,99739.09
2022-08-16T12:03:52.327Z,99727.75
2022-08-16T12:06:54.850Z,99720.34
2022-08-16T12:09:57.335Z,99710.97
2022-08-16T12:13:02.848Z,99699.53
2022-08-16T12:16:09.311Z,99696.44
2022-08-16T12:19:13.868Z,99692.16
2022-08-16T12:22:19.828Z,99692.59
2022-08-16T12:25:24.477Z,99682.03
2022-08-16T12:28:53.935Z,99679.63
2022-08-16T12:31:59.229Z,99687.41
2022-08-16T12:35:06.615Z,99679.09
2022-08-16T12:38:41.696Z,99686.47
2022-08-16T12:41:34.972Z,99687.56
2022-08-16T12:44:37.909Z,99694.44
2022-08-16T12:48:31.433Z,99679.00
2022-08-16T12:51:32.845Z,99687.94
2022-08-16T12:54:55.027Z,99689.03
2022-08-16T12:58:00.281Z,99691.88
2022-08-16T13:01:04.345Z,99684.94
2022-08-16T13:04:20.570Z,99686.16
2022-08-16T13:07:27.239Z,99683.41
2022-08-16T13:10:37.646Z,99677.81
2022-08-16T13:13:41.467Z,99670.06
2022-08-16T13:16:43.622Z,99665.37
2022-08-16T13:20:07.179Z,99657.03
2022-08-16T13:23:11.514Z,99640.50
2022-08-16T13:26:17.260Z,99643.63
2022-08-16T13:29:19.955Z,99648.56
2022-08-16T13:32:39.765Z,99649.25
2022-08-16T13:35:45.352Z,99655.28
2022-08-16T13:38:49.262Z,99646.22
2022-08-16T13:41:53.496Z,99643.97
2022-08-16T13:44:58.447Z,99645.91
2022-08-16T13:48:02.344Z,99647.16
2022-08-16T13:51:07.409Z,99650.63
2022-08-16T13:54:09.542Z,99651.66
2022-08-16T13:57:11.983Z,99650.81
2022-08-16T14:00:19.506Z,99649.56
2022-08-16T14:09:37.302Z,99614.31
2022-08-16T14:12:40.610Z,99614.31
2022-08-16T14:15:42.669Z,99621.72
2022-08-16T14:18:45.080Z,99617.50
